Time;durP1;ratioP1;P1;durP2;ratioP2;P2;SDS_P1;SDS_P2;PMS_P1;PMS_P2;Temp;Humidity;BMP_temperature;BMP_pressure;BME280_temperature;BME280_humidity;BME280_pressure;Samples;Min_cycle;Max_cycle;Signal;HPM_P1;HPM_P2
2022/01/28 00:05:19;;;;;;;2.20;1.92;;;6.40;92.90;;;;;;4910149;29;20202;-64
2022/01/28 00:07:51;;;;;;;2.85;2.10;;;6.30;93.00;;;;;;4912426;29;20202;-63
2022/01/28 00:10:24;;;;;;;2.38;1.80;;;6.20;93.50;;;;;;4920453;29;20376;-64
2022/01/28 00:13:20;;;;;;;2.13;1.70;;;6.10;93.70;;;;;;4910570;29;20215;-63
2022/01/28 00:16:31;;;;;;;2.40;1.83;;;6.00;94.30;;;;;;4911161;29;20337;-64
2022/01/28 00:19:25;;;;;;;5.15;2.30;;;5.90;93.80;;;;;;4916809;29;20202;-63
2022/01/28 00:38:47;;;;;;;3.65;1.98;;;5.50;95.80;;;;;;4927352;29;20210;-63
2022/01/28 00:41:19;;;;;;;2.30;2.10;;;5.40;96.10;;;;;;4925772;29;20206;-62
2022/01/28 00:43:50;;;;;;;3.80;2.00;;;5.30;96.10;;;;;;4920233;29;20204;-62
2022/01/28 00:46:26;;;;;;;3.65;2.55;;;5.30;96.40;;;;;;4922079;29;20720;-63
2022/01/28 00:48:59;;;;;;;2.78;2.40;;;5.20;96.70;;;;;;4924176;29;20207;-60
2022/01/28 00:51:34;;;;;;;3.60;2.17;;;5.20;96.60;;;;;;4910806;29;20249;-61
2022/01/28 00:54:04;;;;;;;4.13;3.03;;;5.20;96.80;;;;;;4913397;29;20203;-61
2022/01/28 00:56:37;;;;;;;2.90;2.65;;;5.10;97.00;;;;;;4921427;29;20226;-61
2022/01/28 00:59:08;;;;;;;2.80;2.28;;;5.10;97.20;;;;;;4921851;29;20207;-60
2022/01/28 01:01:43;;;;;;;2.92;2.20;;;5.00;97.10;;;;;;4920731;29;20254;-60
2022/01/28 01:04:15;;;;;;;2.95;2.03;;;4.90;97.70;;;;;;4920983;29;20203;-60
2022/01/28 01:06:50;;;;;;;3.05;2.80;;;4.90;98.10;;;;;;4919877;29;20238;-61
2022/01/28 01:09:21;;;;;;;3.28;1.90;;;4.80;98.00;;;;;;4920049;29;20213;-60
2022/01/28 01:11:56;;;;;;;2.53;2.33;;;4.80;98.10;;;;;;4923180;29;20199;-60
2022/01/28 01:14:28;;;;;;;2.67;2.30;;;4.70;98.00;;;;;;4921218;29;20199;-61
2022/01/28 01:17:15;;;;;;;3.03;2.22;;;4.70;98.10;;;;;;4925793;29;20563;-61
2022/01/28 01:19:52;;;;;;;3.10;2.55;;;4.70;98.20;;;;;;4921888;29;20270;-62
2022/01/28 01:22:33;;;;;;;5.50;2.65;;;4.60;98.30;;;;;;4912796;29;20210;-62
2022/01/28 01:25:14;;;;;;;3.08;2.78;;;4.60;98.60;;;;;;4912292;29;20226;-62
2022/01/28 01:27:49;;;;;;;3.40;2.70;;;4.50;98.60;;;;;;4915680;29;20191;-62
2022/01/28 01:30:20;;;;;;;3.50;2.80;;;4.50;99.00;;;;;;4915588;29;20216;-61
2022/01/28 01:32:51;;;;;;;6.45;3.33;;;4.40;99.40;;;;;;4914367;29;20207;-61
2022/01/28 01:35:24;;;;;;;5.32;3.30;;;4.40;99.90;;;;;;4914731;29;20286;-61
2022/01/28 01:37:56;;;;;;;4.00;2.83;;;4.30;99.90;;;;;;4923014;29;20369;-61
2022/01/28 01:40:32;;;;;;;4.40;3.30;;;4.30;99.80;;;;;;4920023;29;20203;-61
2022/01/28 01:43:12;;;;;;;3.92;2.53;;;4.30;99.90;;;;;;4908386;29;20294;-61
2022/01/28 01:54:10;;;;;;;3.20;2.83;;;4.10;99.90;;;;;;4917608;29;20227;-63
2022/01/28 01:56:42;;;;;;;4.97;3.50;;;4.10;99.90;;;;;;4924241;29;20211;-61
2022/01/28 01:59:13;;;;;;;5.40;3.40;;;4.00;99.90;;;;;;4925001;29;20551;-65
2022/01/28 02:01:44;;;;;;;4.15;3.53;;;4.00;99.90;;;;;;4909224;29;20290;-64
2022/01/28 02:04:15;;;;;;;5.50;3.50;;;3.90;99.90;;;;;;4925651;29;20242;-61
2022/01/28 02:06:47;;;;;;;3.88;3.17;;;3.90;99.90;;;;;;4918104;29;20579;-64
2022/01/28 02:09:18;;;;;;;3.30;3.00;;;3.90;99.90;;;;;;4913449;29;20207;-66
2022/01/28 02:11:49;;;;;;;5.70;4.00;;;3.90;99.90;;;;;;4918612;29;20254;-64
2022/01/28 02:14:21;;;;;;;4.40;4.00;;;3.90;99.90;;;;;;4919685;29;20294;-66
2022/01/28 02:16:52;;;;;;;3.20;2.90;;;3.90;99.90;;;;;;4914102;29;20230;-66
2022/01/28 02:19:22;;;;;;;4.28;3.42;;;3.80;99.90;;;;;;4915405;29;20531;-63
2022/01/28 02:21:55;;;;;;;4.72;3.58;;;3.80;99.90;;;;;;4912196;29;20670;-63
2022/01/28 02:24:30;;;;;;;5.20;3.35;;;3.80;99.90;;;;;;4909855;29;20211;-62
2022/01/28 02:27:01;;;;;;;4.72;3.28;;;3.80;99.90;;;;;;4913613;29;20202;-63
2022/01/28 02:29:35;;;;;;;4.68;4.00;;;3.80;99.90;;;;;;4926141;29;20212;-65
2022/01/28 02:32:08;;;;;;;4.90;3.70;;;3.80;99.90;;;;;;4922145;29;20479;-64
2022/01/28 02:34:40;;;;;;;4.32;3.38;;;3.80;99.90;;;;;;4920564;29;20271;-63
2022/01/28 02:37:13;;;;;;;3.58;3.25;;;3.80;99.90;;;;;;4918254;29;20226;-62
2022/01/28 02:39:43;;;;;;;5.20;4.00;;;3.80;99.90;;;;;;4918483;29;20207;-62
2022/01/28 02:42:20;;;;;;;5.25;3.10;;;3.80;99.90;;;;;;4912457;29;20203;-64
2022/01/28 02:44:54;;;;;;;4.22;3.22;;;3.80;99.90;;;;;;4917817;29;20231;-61
2022/01/28 02:47:33;;;;;;;4.45;3.60;;;3.80;99.90;;;;;;4921631;29;20228;-62
2022/01/28 02:50:06;;;;;;;4.03;3.25;;;3.80;99.90;;;;;;4918783;29;20257;-64
2022/01/28 02:52:50;;;;;;;4.10;3.33;;;3.80;99.90;;;;;;4908178;29;20203;-64
2022/01/28 02:55:21;;;;;;;3.50;3.20;;;3.80;99.90;;;;;;4921441;29;20206;-63
2022/01/28 02:58:03;;;;;;;7.30;3.70;;;3.80;99.90;;;;;;4922588;29;20234;-72
2022/01/28 03:00:36;;;;;;;4.82;3.22;;;3.80;99.90;;;;;;4915384;29;20234;-63
2022/01/28 03:03:07;;;;;;;5.57;3.88;;;3.80;99.90;;;;;;4918281;29;20358;-63
2022/01/28 03:05:38;;;;;;;3.90;3.50;;;3.80;99.90;;;;;;4920007;29;20253;-61
2022/01/28 03:08:10;;;;;;;4.60;3.40;;;3.90;99.90;;;;;;4916512;29;20298;-64
2022/01/28 03:10:44;;;;;;;7.53;4.05;;;3.80;99.90;;;;;;4924948;29;20203;-62
2022/01/28 03:13:32;;;;;;;4.05;3.40;;;3.80;99.90;;;;;;4912385;29;20208;-64
2022/01/28 03:16:12;;;;;;;5.03;3.55;;;3.80;99.90;;;;;;4921281;29;20219;-61
2022/01/28 03:18:52;;;;;;;4.40;3.20;;;3.80;99.90;;;;;;4911005;29;20356;-64
2022/01/28 03:21:38;;;;;;;4.68;3.15;;;3.70;99.90;;;;;;4917828;29;20566;-62
2022/01/28 03:24:12;;;;;;;3.63;3.30;;;3.70;99.90;;;;;;4919495;29;20210;-62
2022/01/28 03:26:43;;;;;;;3.65;3.33;;;3.70;99.90;;;;;;4917600;29;20204;-62
2022/01/28 03:29:14;;;;;;;4.70;3.15;;;3.70;99.90;;;;;;4920253;29;20279;-63
2022/01/28 03:31:45;;;;;;;4.35;3.35;;;3.70;99.90;;;;;;4918365;29;20309;-62
2022/01/28 03:34:16;;;;;;;4.70;3.30;;;3.70;99.90;;;;;;4920873;29;20267;-63
2022/01/28 03:36:47;;;;;;;4.15;3.80;;;3.70;99.90;;;;;;4924810;29;20674;-63
2022/01/28 03:39:19;;;;;;;5.78;4.32;;;3.70;99.90;;;;;;4922779;29;20241;-62
2022/01/28 03:41:50;;;;;;;6.30;4.55;;;3.80;99.90;;;;;;4922899;29;20195;-63
2022/01/28 03:44:20;;;;;;;5.97;4.30;;;3.70;99.90;;;;;;4920090;29;20219;-62
2022/01/28 03:46:51;;;;;;;3.85;3.45;;;3.70;99.90;;;;;;4922164;29;20204;-62
2022/01/28 03:49:22;;;;;;;4.25;3.88;;;3.70;99.90;;;;;;4917492;29;20238;-63
2022/01/28 03:51:54;;;;;;;4.50;3.25;;;3.70;99.90;;;;;;4912274;29;20211;-68
2022/01/28 03:54:26;;;;;;;5.47;3.88;;;3.70;99.90;;;;;;4914255;29;20208;-64
2022/01/28 03:56:57;;;;;;;4.25;3.60;;;3.70;99.90;;;;;;4923642;29;20217;-63
2022/01/28 03:59:28;;;;;;;4.32;3.55;;;3.70;99.90;;;;;;4911324;29;20742;-63
2022/01/28 04:01:59;;;;;;;4.65;3.58;;;3.70;99.90;;;;;;4909736;29;20217;-62
2022/01/28 04:13:00;;;;;;;5.30;3.55;;;3.70;99.90;;;;;;4875276;29;20209;-62
2022/01/28 04:15:48;;;;;;;5.38;3.97;;;3.70;99.90;;;;;;4880585;29;20207;-61
2022/01/28 04:18:19;;;;;;;5.75;4.85;;;3.70;99.90;;;;;;4872589;29;20243;-62
2022/01/28 04:20:50;;;;;;;4.35;3.80;;;3.70;99.90;;;;;;4881397;29;20203;-61
2022/01/28 04:23:21;;;;;;;6.43;4.78;;;3.70;99.90;;;;;;4884130;29;20204;-62
2022/01/28 04:25:53;;;;;;;5.50;4.00;;;3.70;99.90;;;;;;4875880;29;20220;-62
2022/01/28 04:28:27;;;;;;;3.95;3.60;;;3.60;99.90;;;;;;4877994;29;20560;-73
2022/01/28 04:30:58;;;;;;;3.97;3.50;;;3.50;99.90;;;;;;4884859;29;20263;-63
2022/01/28 04:33:30;;;;;;;5.60;3.97;;;3.50;99.90;;;;;;4877680;29;20201;-63
2022/01/28 04:36:01;;;;;;;5.32;4.15;;;3.50;99.90;;;;;;4871011;29;20671;-74
2022/01/28 04:38:38;;;;;;;5.18;3.90;;;3.50;99.90;;;;;;4871879;29;20232;-62
2022/01/28 04:41:18;;;;;;;6.43;4.43;;;3.50;99.90;;;;;;4873079;29;20208;-64
2022/01/28 04:43:54;;;;;;;5.35;4.30;;;3.50;99.90;;;;;;4893014;29;20234;-63
2022/01/28 04:46:34;;;;;;;5.60;3.83;;;3.50;99.90;;;;;;4923372;29;20210;-64
2022/01/28 04:49:10;;;;;;;5.25;3.92;;;3.50;99.90;;;;;;4919046;29;20198;-64
2022/01/28 04:52:11;;;;;;;4.97;3.78;;;3.40;99.90;;;;;;4924043;29;20289;-63
2022/01/28 04:54:58;;;;;;;4.20;3.80;;;3.40;99.90;;;;;;4927728;29;20190;-64
2022/01/28 04:57:38;;;;;;;5.68;4.00;;;3.40;99.90;;;;;;4919991;29;20278;-63
2022/01/28 05:00:18;;;;;;;6.80;5.00;;;3.40;99.90;;;;;;4917020;29;20234;-64
2022/01/28 05:03:07;;;;;;;5.97;4.65;;;3.40;99.90;;;;;;4909596;29;20222;-63
2022/01/28 05:08:59;;;;;;;5.82;4.35;;;3.30;99.90;;;;;;4906671;29;20222;-65
2022/01/28 05:15:09;;;;;;;8.48;4.00;;;3.30;99.90;;;;;;4917004;29;20218;-65
2022/01/28 05:24:08;;;;;;;4.85;3.55;;;3.30;99.90;;;;;;4921740;29;20209;-64
2022/01/28 05:26:51;;;;;;;5.75;4.75;;;3.30;99.90;;;;;;4914637;29;20210;-64
2022/01/28 05:29:24;;;;;;;4.45;3.80;;;3.30;99.90;;;;;;4922297;29;20245;-62
2022/01/28 05:31:56;;;;;;;7.68;4.07;;;3.30;99.90;;;;;;4917844;29;20698;-63
2022/01/28 05:34:27;;;;;;;5.97;4.30;;;3.30;99.90;;;;;;4918589;29;20186;-63
2022/01/28 05:36:59;;;;;;;5.43;4.40;;;3.30;99.90;;;;;;4916775;29;20191;-64
2022/01/28 05:39:29;;;;;;;3.70;3.40;;;3.40;99.90;;;;;;4916927;29;20809;-63
2022/01/28 05:42:02;;;;;;;6.32;4.63;;;3.40;99.90;;;;;;4919409;29;20218;-63
2022/01/28 05:44:51;;;;;;;6.25;4.25;;;3.40;99.90;;;;;;4917633;29;20289;-64
2022/01/28 05:47:24;;;;;;;5.63;3.53;;;3.40;99.90;;;;;;4918105;29;20286;-64
2022/01/28 05:49:56;;;;;;;6.10;4.18;;;3.40;99.90;;;;;;4920989;29;20334;-63
2022/01/28 05:52:28;;;;;;;6.35;4.25;;;3.40;99.90;;;;;;4914023;29;20202;-63
2022/01/28 05:54:59;;;;;;;8.15;3.90;;;3.40;99.90;;;;;;4918942;29;20290;-63
2022/01/28 05:57:30;;;;;;;4.78;4.30;;;3.40;99.90;;;;;;4920284;29;20279;-63
2022/01/28 06:00:03;;;;;;;4.45;3.90;;;3.40;99.90;;;;;;4917456;29;20551;-63
2022/01/28 06:02:34;;;;;;;5.40;4.25;;;3.30;99.90;;;;;;4919766;29;20202;-62
2022/01/28 06:05:06;;;;;;;5.25;3.70;;;3.30;99.90;;;;;;4915497;29;20214;-63
2022/01/28 06:07:41;;;;;;;5.40;4.15;;;3.30;99.90;;;;;;4916529;29;20203;-63
2022/01/28 06:10:13;;;;;;;9.20;4.35;;;3.30;99.90;;;;;;4918835;29;20205;-63
2022/01/28 06:12:44;;;;;;;5.93;4.68;;;3.30;99.90;;;;;;4915332;29;20202;-63
2022/01/28 06:15:17;;;;;;;4.55;3.78;;;3.30;99.90;;;;;;4925207;29;20199;-63
2022/01/28 06:17:48;;;;;;;6.35;4.22;;;3.30;99.90;;;;;;4918465;29;20271;-63
2022/01/28 06:20:19;;;;;;;6.25;3.83;;;3.30;99.90;;;;;;4917562;29;20234;-63
2022/01/28 06:22:50;;;;;;;4.75;3.75;;;3.30;99.90;;;;;;4920116;29;20192;-63
2022/01/28 06:25:22;;;;;;;5.63;4.68;;;3.30;99.90;;;;;;4918786;29;20203;-61
2022/01/28 06:27:54;;;;;;;5.82;4.15;;;3.20;99.90;;;;;;4917057;29;20342;-62
2022/01/28 06:30:29;;;;;;;5.65;4.07;;;3.20;99.90;;;;;;4912186;29;20563;-63
2022/01/28 06:33:00;;;;;;;5.35;4.25;;;3.20;99.90;;;;;;4920410;29;20548;-62
2022/01/28 06:35:31;;;;;;;6.60;4.20;;;3.20;99.90;;;;;;4917783;29;20221;-62
2022/01/28 06:38:02;;;;;;;4.63;3.80;;;3.20;99.90;;;;;;4922152;29;20191;-62
2022/01/28 06:40:33;;;;;;;5.82;4.72;;;3.10;99.90;;;;;;4914243;29;20633;-62
2022/01/28 06:43:04;;;;;;;5.40;3.90;;;3.10;99.90;;;;;;4916399;29;20298;-62
2022/01/28 06:45:39;;;;;;;5.55;4.78;;;3.10;99.90;;;;;;4914713;29;20198;-62
2022/01/28 06:48:11;;;;;;;4.40;3.58;;;3.10;99.90;;;;;;4918912;29;20598;-62
2022/01/28 06:50:43;;;;;;;5.15;3.67;;;3.10;99.90;;;;;;4913690;29;20237;-62
2022/01/28 06:53:15;;;;;;;4.43;4.00;;;3.10;99.90;;;;;;4919880;29;20289;-62
2022/01/28 06:55:46;;;;;;;6.15;4.18;;;3.10;99.90;;;;;;4925563;29;20225;-62
2022/01/28 06:58:17;;;;;;;4.35;3.65;;;3.10;99.90;;;;;;4919053;29;20333;-62
2022/01/28 07:00:49;;;;;;;5.97;3.95;;;3.10;99.90;;;;;;4913915;29;20222;-62
2022/01/28 07:03:21;;;;;;;5.53;4.05;;;3.10;99.90;;;;;;4919650;29;20215;-62
2022/01/28 07:05:52;;;;;;;8.00;4.55;;;3.10;99.90;;;;;;4924423;29;20194;-61
2022/01/28 07:08:25;;;;;;;4.80;3.92;;;3.10;99.90;;;;;;4918388;29;20203;-62
2022/01/28 07:10:55;;;;;;;5.38;3.80;;;3.10;99.90;;;;;;4910663;29;20271;-62
2022/01/28 07:13:26;;;;;;;5.15;4.60;;;3.10;99.90;;;;;;4921683;29;20214;-62
2022/01/28 07:15:59;;;;;;;6.78;3.78;;;3.10;99.90;;;;;;4921611;29;20207;-62
2022/01/28 07:18:30;;;;;;;6.55;4.05;;;3.20;99.90;;;;;;4923525;29;20218;-62
2022/01/28 07:21:01;;;;;;;5.50;3.65;;;3.20;99.90;;;;;;4911031;29;20313;-62
2022/01/28 07:23:31;;;;;;;4.53;3.35;;;3.10;99.90;;;;;;4917873;29;20267;-62
2022/01/28 07:26:02;;;;;;;5.55;3.55;;;3.10;99.90;;;;;;4924253;29;20206;-63
2022/01/28 07:28:35;;;;;;;6.32;4.75;;;3.10;99.90;;;;;;4922684;29;20519;-63
2022/01/28 07:31:10;;;;;;;5.72;4.63;;;3.10;99.90;;;;;;4924827;29;20310;-63
2022/01/28 07:33:41;;;;;;;4.75;4.25;;;3.10;99.90;;;;;;4915645;29;20237;-63
2022/01/28 07:36:12;;;;;;;5.18;3.95;;;3.10;99.90;;;;;;4918178;29;20266;-63
2022/01/28 07:38:43;;;;;;;5.32;4.05;;;3.10;99.90;;;;;;4916425;29;20215;-62
2022/01/28 07:41:14;;;;;;;5.93;4.55;;;3.10;99.90;;;;;;4910898;29;20245;-62
2022/01/28 07:43:48;;;;;;;4.97;4.47;;;3.10;99.90;;;;;;4923690;29;20207;-62
2022/01/28 07:46:20;;;;;;;6.28;5.00;;;3.10;99.90;;;;;;4921675;29;20213;-62
2022/01/28 07:48:52;;;;;;;6.22;4.50;;;3.10;99.90;;;;;;4920342;29;20211;-61
2022/01/28 07:51:23;;;;;;;5.82;4.38;;;3.10;99.90;;;;;;4916466;29;20230;-63
2022/01/28 07:53:54;;;;;;;7.13;4.40;;;3.10;99.90;;;;;;4920994;29;20191;-61
2022/01/28 07:56:25;;;;;;;7.60;4.32;;;3.10;99.90;;;;;;4923060;29;20210;-62
2022/01/28 07:58:55;;;;;;;5.75;4.03;;;3.10;99.90;;;;;;4923832;29;20293;-62
2022/01/28 08:01:28;;;;;;;6.32;4.38;;;3.10;99.90;;;;;;4916851;29;20237;-62
2022/01/28 08:03:59;;;;;;;7.18;4.55;;;3.10;99.90;;;;;;4912697;29;20214;-62
2022/01/28 08:06:30;;;;;;;6.35;4.35;;;3.10;99.90;;;;;;4924956;29;20212;-61
2022/01/28 08:09:01;;;;;;;5.47;3.65;;;3.10;99.90;;;;;;4924037;29;20205;-61
2022/01/28 08:11:32;;;;;;;5.40;3.90;;;3.00;99.90;;;;;;4925028;29;20199;-61
2022/01/28 08:14:03;;;;;;;6.15;3.95;;;3.00;99.90;;;;;;4918238;29;20215;-61
2022/01/28 08:16:39;;;;;;;7.15;6.07;;;3.00;99.90;;;;;;4924054;29;20210;-61
2022/01/28 08:19:10;;;;;;;5.85;3.97;;;2.90;99.90;;;;;;4923017;29;20203;-62
2022/01/28 08:21:41;;;;;;;6.88;4.10;;;3.00;99.90;;;;;;4925487;29;20236;-61
2022/01/28 08:24:12;;;;;;;7.68;5.32;;;2.90;99.90;;;;;;4924728;29;20213;-63
2022/01/28 08:26:43;;;;;;;5.78;4.47;;;2.90;99.90;;;;;;4918703;29;20238;-62
2022/01/28 08:29:14;;;;;;;6.90;4.63;;;2.90;99.90;;;;;;4918550;29;20203;-62
2022/01/28 08:31:46;;;;;;;5.85;4.70;;;2.90;99.90;;;;;;4914973;29;20279;-62
2022/01/28 08:34:17;;;;;;;4.65;3.70;;;2.90;99.90;;;;;;4923904;29;20691;-62
2022/01/28 08:36:48;;;;;;;5.28;3.85;;;2.90;99.90;;;;;;4922289;29;20186;-62
2022/01/28 08:39:21;;;;;;;7.63;5.28;;;2.90;99.90;;;;;;4923869;29;20211;-62
2022/01/28 08:41:52;;;;;;;5.57;5.00;;;3.00;99.90;;;;;;4919206;29;20275;-62
2022/01/28 08:44:23;;;;;;;7.60;4.90;;;3.00;99.90;;;;;;4912550;29;20207;-63
2022/01/28 08:46:55;;;;;;;5.22;3.97;;;3.00;99.90;;;;;;4919714;29;20203;-62
2022/01/28 08:49:26;;;;;;;6.65;4.28;;;3.00;99.90;;;;;;4926036;29;20270;-63
2022/01/28 08:51:58;;;;;;;5.43;4.40;;;3.00;99.90;;;;;;4920207;29;20206;-63
2022/01/28 08:54:28;;;;;;;5.88;3.70;;;3.00;99.90;;;;;;4919355;29;20204;-62
2022/01/28 08:56:59;;;;;;;5.18;3.90;;;3.00;99.90;;;;;;4913878;29;20249;-62
2022/01/28 08:59:40;;;;;;;6.60;4.30;;;3.00;99.90;;;;;;4916275;29;20202;-62
2022/01/28 09:02:13;;;;;;;5.55;4.05;;;3.00;99.90;;;;;;4920251;29;20234;-62
2022/01/28 09:04:44;;;;;;;5.40;4.25;;;3.00;99.90;;;;;;4925098;29;20580;-62
2022/01/28 09:07:15;;;;;;;7.47;4.20;;;3.00;99.90;;;;;;4917069;29;20227;-62
2022/01/28 09:09:51;;;;;;;8.30;4.63;;;3.00;99.90;;;;;;4925241;29;20310;-62
2022/01/28 09:12:35;;;;;;;5.45;3.83;;;3.00;99.90;;;;;;4924923;29;20557;-63
2022/01/28 09:15:06;;;;;;;5.70;4.47;;;3.00;99.90;;;;;;4926143;29;20206;-62
2022/01/28 09:17:58;;;;;;;5.57;3.97;;;3.00;99.90;;;;;;4914335;29;20198;-62
2022/01/28 09:20:31;;;;;;;5.25;4.00;;;3.00;99.90;;;;;;4923985;29;20211;-63
2022/01/28 09:23:03;;;;;;;7.05;5.07;;;2.90;99.90;;;;;;4925292;29;20213;-63
2022/01/28 09:25:34;;;;;;;6.18;4.55;;;2.90;99.90;;;;;;4924901;29;20191;-62
2022/01/28 09:28:08;;;;;;;8.00;4.68;;;2.90;99.90;;;;;;4921474;29;20230;-61
2022/01/28 09:30:39;;;;;;;7.53;5.13;;;2.90;99.90;;;;;;4920407;29;20214;-62
2022/01/28 09:33:12;;;;;;;5.78;4.32;;;3.00;99.90;;;;;;4922116;29;20207;-62
2022/01/28 09:35:43;;;;;;;5.50;3.60;;;3.00;99.90;;;;;;4919309;29;20226;-62
2022/01/28 09:38:13;;;;;;;5.70;3.90;;;2.90;99.90;;;;;;4920234;29;20721;-63
2022/01/28 09:40:44;;;;;;;7.72;5.05;;;2.90;99.90;;;;;;4924569;29;20198;-62
2022/01/28 09:43:15;;;;;;;6.80;4.40;;;2.90;99.90;;;;;;4914717;29;20206;-62
2022/01/28 09:45:51;;;;;;;8.45;4.45;;;3.00;99.90;;;;;;4917385;29;20227;-63
2022/01/28 09:48:24;;;;;;;6.63;4.70;;;2.90;99.90;;;;;;4919595;29;20293;-62
2022/01/28 09:50:55;;;;;;;6.10;3.90;;;2.90;99.90;;;;;;4924899;29;20245;-62
2022/01/28 09:53:26;;;;;;;5.65;3.97;;;2.90;99.90;;;;;;4917937;29;20207;-62
2022/01/28 09:55:57;;;;;;;5.72;4.20;;;2.90;99.90;;;;;;4918984;29;20187;-62
2022/01/28 09:58:28;;;;;;;4.10;3.22;;;2.80;99.90;;;;;;4917369;29;20210;-62
2022/01/28 10:01:04;;;;;;;6.13;4.72;;;2.90;99.90;;;;;;4915655;29;20333;-63
2022/01/28 10:03:38;;;;;;;6.53;4.15;;;2.80;99.90;;;;;;4924203;29;20336;-63
2022/01/28 10:06:09;;;;;;;7.47;5.10;;;2.80;99.90;;;;;;4911764;29;20235;-63
2022/01/28 10:08:41;;;;;;;6.00;4.60;;;2.90;99.90;;;;;;4921864;29;20281;-63
2022/01/28 10:11:16;;;;;;;7.55;4.57;;;2.90;99.90;;;;;;4918981;29;20198;-63
2022/01/28 10:13:51;;;;;;;6.88;4.97;;;2.90;99.90;;;;;;4911482;29;20208;-62
2022/01/28 10:16:24;;;;;;;5.40;4.10;;;2.80;99.90;;;;;;4925103;29;20213;-63
2022/01/28 10:18:57;;;;;;;6.75;4.63;;;2.90;99.90;;;;;;4918072;29;20218;-63
2022/01/28 10:21:33;;;;;;;5.47;4.22;;;2.90;99.90;;;;;;4919591;29;20699;-63
2022/01/28 10:24:08;;;;;;;5.55;3.80;;;2.90;99.90;;;;;;4913441;29;20210;-63
2022/01/28 10:26:41;;;;;;;5.82;4.07;;;2.90;99.90;;;;;;4912213;29;20204;-62
2022/01/28 10:29:14;;;;;;;6.78;4.95;;;2.90;99.90;;;;;;4921879;29;20255;-62
2022/01/28 10:31:48;;;;;;;6.55;3.67;;;2.90;99.90;;;;;;4915770;29;20207;-61
2022/01/28 10:34:35;;;;;;;6.35;5.03;;;2.90;99.90;;;;;;4918495;29;20217;-62
2022/01/28 10:37:17;;;;;;;5.70;4.75;;;2.90;99.90;;;;;;4923939;29;20211;-62
2022/01/28 10:39:53;;;;;;;6.80;4.55;;;3.00;99.90;;;;;;4920981;29;20345;-61
2022/01/28 10:42:36;;;;;;;6.10;4.25;;;3.00;99.90;;;;;;4923682;29;20234;-61
2022/01/28 10:45:12;;;;;;;5.68;4.07;;;3.00;99.90;;;;;;4923308;29;20202;-62
2022/01/28 10:47:44;;;;;;;5.80;4.88;;;3.00;99.90;;;;;;4921175;29;20279;-62
2022/01/28 10:50:23;;;;;;;8.43;5.20;;;2.90;99.90;;;;;;4923310;29;20244;-62
2022/01/28 10:53:07;;;;;;;5.85;4.47;;;2.90;99.90;;;;;;4912884;29;20203;-62
2022/01/28 10:55:39;;;;;;;5.35;3.90;;;2.90;99.90;;;;;;4918422;29;20539;-62
2022/01/28 10:58:12;;;;;;;5.65;3.85;;;2.90;99.90;;;;;;4919834;29;20226;-61
2022/01/28 11:00:45;;;;;;;4.25;3.72;;;2.80;99.90;;;;;;4920319;29;20639;-62
2022/01/28 11:03:17;;;;;;;5.18;4.22;;;2.90;99.90;;;;;;4917659;29;20310;-62
2022/01/28 11:05:52;;;;;;;5.95;4.50;;;2.90;99.90;;;;;;4916021;29;20194;-61
2022/01/28 11:08:22;;;;;;;7.05;3.97;;;2.90;99.90;;;;;;4919048;29;20210;-61
2022/01/28 11:10:53;;;;;;;5.70;4.15;;;2.90;99.90;;;;;;4922428;29;20209;-62
2022/01/28 11:13:24;;;;;;;6.25;4.10;;;2.90;99.90;;;;;;4924421;29;20217;-62
2022/01/28 11:15:57;;;;;;;6.18;3.80;;;2.90;99.90;;;;;;4923008;29;20202;-61
2022/01/28 11:18:29;;;;;;;8.65;4.63;;;2.90;99.90;;;;;;4924183;29;20191;-61
2022/01/28 11:21:10;;;;;;;5.30;3.83;;;2.90;99.90;;;;;;4920984;29;20214;-62
2022/01/28 11:23:51;;;;;;;5.63;3.75;;;2.90;99.90;;;;;;4907831;29;20231;-62
2022/01/28 11:26:26;;;;;;;6.38;3.47;;;2.90;99.90;;;;;;4914143;29;20267;-62
2022/01/28 11:29:02;;;;;;;7.32;4.10;;;2.80;99.90;;;;;;4918451;29;20662;-62
2022/01/28 11:31:48;;;;;;;5.65;4.30;;;2.80;99.90;;;;;;4920465;29;20213;-62
2022/01/28 11:34:23;;;;;;;5.82;4.03;;;2.80;99.90;;;;;;4918960;29;20248;-63
2022/01/28 11:36:56;;;;;;;5.40;4.38;;;2.80;99.90;;;;;;4918884;29;20186;-61
2022/01/28 11:39:33;;;;;;;5.80;4.20;;;2.80;99.90;;;;;;4920426;29;20191;-61
2022/01/28 11:42:10;;;;;;;6.28;4.20;;;2.90;99.90;;;;;;4916899;29;20651;-61
2022/01/28 11:44:46;;;;;;;5.78;3.95;;;2.90;99.90;;;;;;4914297;29;20301;-61
2022/01/28 11:47:24;;;;;;;5.13;4.03;;;2.80;99.90;;;;;;4916616;29;20549;-62
2022/01/28 11:49:58;;;;;;;5.20;4.45;;;2.80;99.90;;;;;;4925962;29;20223;-62
2022/01/28 11:52:33;;;;;;;5.93;4.32;;;2.70;99.90;;;;;;4925945;29;20511;-61
2022/01/28 11:55:39;;;;;;;5.95;4.35;;;2.70;99.90;;;;;;4918807;29;20202;-61
2022/01/28 11:58:12;;;;;;;8.52;4.20;;;2.70;99.90;;;;;;4910420;29;20199;-62
2022/01/28 12:00:45;;;;;;;4.53;3.65;;;2.70;99.90;;;;;;4919267;29;20209;-61
2022/01/28 12:03:21;;;;;;;6.32;4.32;;;2.70;99.90;;;;;;4923089;29;20238;-61
2022/01/28 12:05:57;;;;;;;5.75;4.05;;;2.60;99.90;;;;;;4924349;29;20206;-61
2022/01/28 12:08:32;;;;;;;8.90;4.70;;;2.70;99.90;;;;;;4920546;29;20206;-61
2022/01/28 12:11:06;;;;;;;4.90;3.80;;;2.80;99.90;;;;;;4927652;29;20198;-61
2022/01/28 12:14:00;;;;;;;5.57;4.10;;;2.80;99.90;;;;;;4923138;29;20214;-61
2022/01/28 12:16:33;;;;;;;5.63;4.20;;;2.90;99.90;;;;;;4925663;29;20242;-61
2022/01/28 12:19:17;;;;;;;4.45;3.83;;;2.80;99.90;;;;;;4928619;29;20230;-62
2022/01/28 12:22:11;;;;;;;4.50;3.78;;;2.80;99.90;;;;;;4921137;29;20204;-61
2022/01/28 12:24:43;;;;;;;5.80;4.30;;;2.70;99.90;;;;;;4913956;29;20270;-61
2022/01/28 12:27:14;;;;;;;6.18;4.32;;;2.70;99.90;;;;;;4920400;29;20215;-61
2022/01/28 12:29:46;;;;;;;5.78;4.05;;;2.70;99.90;;;;;;4924869;29;20277;-61
2022/01/28 12:32:23;;;;;;;6.28;4.38;;;2.70;99.90;;;;;;4924623;29;20251;-62
2022/01/28 12:34:54;;;;;;;5.35;4.10;;;2.70;99.90;;;;;;4920547;29;20262;-61
2022/01/28 12:37:28;;;;;;;5.40;3.70;;;2.70;99.90;;;;;;4909943;29;20263;-61
2022/01/28 12:40:05;;;;;;;6.75;4.40;;;2.80;99.90;;;;;;4924868;29;20282;-62
2022/01/28 12:42:41;;;;;;;4.97;4.38;;;2.70;99.90;;;;;;4915667;29;20329;-62
2022/01/28 12:45:12;;;;;;;6.30;4.70;;;2.80;99.90;;;;;;4916767;29;20294;-62
2022/01/28 12:47:43;;;;;;;7.40;4.05;;;2.80;99.90;;;;;;4909188;29;20211;-62
2022/01/28 12:50:16;;;;;;;5.93;3.92;;;2.80;99.90;;;;;;4919815;29;20239;-62
2022/01/28 12:52:48;;;;;;;5.32;4.10;;;2.80;99.90;;;;;;4925465;29;20238;-61
2022/01/28 12:55:21;;;;;;;4.60;3.85;;;2.80;99.90;;;;;;4915593;29;21191;-62
2022/01/28 12:57:52;;;;;;;6.95;5.05;;;2.80;99.90;;;;;;4915638;29;20207;-62
2022/01/28 13:00:24;;;;;;;6.80;4.82;;;2.80;99.90;;;;;;4912049;29;20266;-62
2022/01/28 13:02:56;;;;;;;4.72;3.88;;;2.80;99.90;;;;;;4912750;29;20227;-63
2022/01/28 13:05:37;;;;;;;7.25;4.90;;;2.80;99.90;;;;;;4919979;29;20221;-62
2022/01/28 13:08:28;;;;;;;5.35;4.18;;;2.80;99.90;;;;;;4923031;29;20273;-62
2022/01/28 13:11:05;;;;;;;4.38;3.95;;;2.80;99.90;;;;;;4917488;29;20211;-62
2022/01/28 13:13:47;;;;;;;5.13;4.03;;;2.80;99.90;;;;;;4919607;29;20203;-62
2022/01/28 13:16:29;;;;;;;5.80;4.40;;;2.90;99.90;;;;;;4914358;29;20203;-62
2022/01/28 13:19:01;;;;;;;7.28;4.88;;;2.90;99.90;;;;;;4915470;29;20202;-62
2022/01/28 13:21:33;;;;;;;6.53;5.00;;;2.90;99.90;;;;;;4917935;29;20279;-62
2022/01/28 13:24:15;;;;;;;5.38;4.30;;;2.90;99.90;;;;;;4922454;29;20292;-62
2022/01/28 13:27:00;;;;;;;7.05;4.65;;;2.80;99.90;;;;;;4921648;29;20237;-61
2022/01/28 13:29:38;;;;;;;4.53;4.07;;;2.80;99.90;;;;;;4914166;29;20218;-61
2022/01/28 13:32:14;;;;;;;5.30;4.50;;;2.80;99.90;;;;;;4915489;29;20566;-61
2022/01/28 13:34:48;;;;;;;5.05;4.25;;;2.80;99.90;;;;;;4922788;29;20221;-62
2022/01/28 13:37:44;;;;;;;5.30;4.80;;;2.80;99.90;;;;;;4908841;29;20293;-61
2022/01/28 13:40:32;;;;;;;6.18;5.20;;;2.80;99.90;;;;;;4918114;29;20230;-62
2022/01/28 13:43:08;;;;;;;5.50;4.57;;;2.80;99.90;;;;;;4916050;29;20307;-61
2022/01/28 13:45:42;;;;;;;6.35;4.80;;;2.80;99.90;;;;;;4908347;29;20203;-61
2022/01/28 13:48:18;;;;;;;5.20;3.97;;;2.80;99.90;;;;;;4921824;29;20214;-61
2022/01/28 13:50:50;;;;;;;4.07;3.70;;;2.80;99.90;;;;;;4909507;29;20286;-62
2022/01/28 13:53:34;;;;;;;6.10;4.90;;;2.70;99.90;;;;;;4914142;29;20225;-61
2022/01/28 13:56:10;;;;;;;9.60;5.25;;;2.80;99.90;;;;;;4925145;29;20213;-61
2022/01/28 13:58:51;;;;;;;6.03;3.92;;;2.80;99.90;;;;;;4916324;29;20225;-62
2022/01/28 14:01:23;;;;;;;7.07;4.80;;;2.80;99.90;;;;;;4921775;29;20199;-62
2022/01/28 14:03:56;;;;;;;5.53;4.47;;;2.80;99.90;;;;;;4918461;29;20265;-62
2022/01/28 14:06:29;;;;;;;6.40;4.90;;;2.90;99.90;;;;;;4915081;29;20233;-62
2022/01/28 14:09:09;;;;;;;5.25;3.85;;;2.80;99.90;;;;;;4922233;29;20193;-62
2022/01/28 14:11:43;;;;;;;5.85;3.90;;;2.80;99.90;;;;;;4923230;29;20213;-62
2022/01/28 14:14:24;;;;;;;20.45;5.88;;;2.80;99.90;;;;;;4919050;29;20211;-62
2022/01/28 14:17:05;;;;;;;5.47;4.07;;;2.90;99.90;;;;;;4921513;29;20207;-62
2022/01/28 14:19:37;;;;;;;5.30;3.97;;;2.90;99.90;;;;;;4920912;29;20330;-61
2022/01/28 14:22:13;;;;;;;6.55;4.65;;;2.90;99.90;;;;;;4916961;29;20210;-62
2022/01/28 14:24:59;;;;;;;7.47;5.20;;;2.90;99.90;;;;;;4911538;29;20219;-62
2022/01/28 14:28:00;;;;;;;5.18;3.85;;;2.90;99.90;;;;;;4912028;29;20203;-62